createdAt,value
2022-07-26T00:01:25.982Z,43.48
2022-07-26T00:06:35.715Z,43.65
2022-07-26T00:11:38.796Z,44.11
2022-07-26T00:16:43.042Z,44.23
2022-07-26T00:21:46.811Z,44.56
2022-07-26T00:26:50.799Z,44.87
2022-07-26T00:31:54.849Z,44.79
2022-07-26T00:36:58.309Z,44.56
2022-07-26T00:42:01.351Z,44.37
2022-07-26T00:47:05.094Z,44.94
2022-07-26T00:52:11.051Z,45.20
2022-07-26T00:57:15.387Z,45.40
2022-07-26T01:02:19.727Z,44.54
2022-07-26T01:07:23.765Z,44.29
2022-07-26T01:12:27.433Z,44.22
2022-07-26T01:17:30.849Z,44.00
2022-07-26T01:22:37.535Z,44.14
2022-07-26T01:27:40.683Z,44.80
2022-07-26T01:32:44.691Z,44.58
2022-07-26T01:37:47.960Z,44.67
2022-07-26T01:42:51.675Z,44.81
2022-07-26T01:47:58.127Z,44.66
2022-07-26T01:53:01.645Z,43.42
2022-07-26T01:58:09.586Z,44.37
2022-07-26T02:03:13.372Z,43.46
2022-07-26T02:08:16.455Z,44.44
2022-07-26T02:13:22.086Z,42.66
2022-07-26T02:18:27.609Z,40.78
2022-07-26T02:23:31.268Z,39.54
2022-07-26T02:28:34.882Z,38.38
2022-07-26T02:33:38.739Z,37.81
2022-07-26T02:38:42.010Z,37.29
2022-07-26T02:43:45.005Z,37.85
2022-07-26T02:48:48.709Z,37.67
2022-07-26T02:53:54.230Z,39.56
2022-07-26T02:58:57.526Z,40.82
2022-07-26T03:04:00.510Z,41.12
2022-07-26T03:09:04.889Z,40.20
2022-07-26T03:14:09.151Z,41.16
2022-07-26T03:19:12.854Z,41.19
2022-07-26T03:24:16.240Z,40.82
2022-07-26T03:29:19.677Z,39.89
2022-07-26T03:34:23.839Z,39.35
2022-07-26T03:39:26.994Z,39.32
2022-07-26T03:44:30.491Z,40.18
2022-07-26T03:49:34.094Z,40.29
2022-07-26T03:54:37.765Z,40.12
2022-07-26T03:59:41.278Z,38.90
2022-07-26T04:04:45.351Z,39.62
2022-07-26T04:09:49.496Z,40.53
2022-07-26T04:14:53.455Z,39.16
2022-07-26T04:19:56.441Z,39.34
2022-07-26T04:25:00.493Z,39.70
2022-07-26T04:30:04.396Z,40.64
2022-07-26T04:35:08.566Z,41.20
2022-07-26T04:40:16.351Z,42.57
2022-07-26T04:45:21.658Z,43.02
2022-07-26T04:50:26.085Z,42.66
2022-07-26T04:55:29.763Z,43.27
2022-07-26T05:00:35.048Z,42.83
2022-07-26T05:05:49.819Z,43.64
2022-07-26T05:10:55.623Z,43.45
2022-07-26T05:16:01.769Z,45.03
2022-07-26T05:21:07.233Z,43.13
2022-07-26T05:26:12.775Z,44.70
2022-07-26T05:31:16.648Z,42.56
2022-07-26T05:36:20.346Z,40.91
2022-07-26T05:41:23.537Z,41.42
2022-07-26T05:46:26.696Z,38.43
2022-07-26T05:51:30.783Z,37.68
2022-07-26T05:56:34.461Z,32.43
2022-07-26T06:01:37.872Z,30.47
2022-07-26T06:06:41.567Z,31.32
2022-07-26T06:11:45.066Z,29.55
2022-07-26T06:16:48.922Z,28.81
2022-07-26T06:21:51.976Z,28.14
2022-07-26T06:26:57.963Z,29.23
2022-07-26T06:32:08.471Z,21.29
2022-07-26T06:37:11.840Z,21.34
2022-07-26T06:42:15.334Z,20.54
2022-07-26T06:47:18.920Z,20.74
2022-07-26T06:52:22.258Z,19.53
2022-07-26T06:57:25.426Z,19.27
2022-07-26T07:02:28.520Z,18.63
2022-07-26T07:07:31.871Z,19.84
2022-07-26T07:12:38.078Z,19.02
2022-07-26T07:17:41.067Z,18.43
2022-07-26T07:22:44.692Z,19.22
2022-07-26T07:27:48.253Z,19.43
2022-07-26T07:32:52.154Z,20.88
2022-07-26T07:37:55.413Z,19.70
2022-07-26T07:42:59.364Z,20.01
2022-07-26T07:48:02.600Z,19.38
2022-07-26T07:53:06.693Z,18.99
2022-07-26T07:58:10.181Z,20.34
2022-07-26T08:03:14.157Z,18.35
2022-07-26T08:08:22.991Z,19.81
2022-07-26T08:13:26.579Z,17.58
2022-07-26T08:18:30.215Z,19.26
2022-07-26T08:23:33.484Z,18.50
2022-07-26T08:28:47.544Z,20.96
2022-07-26T08:33:51.778Z,18.02
2022-07-26T08:38:54.856Z,18.53
2022-07-26T08:44:09.130Z,19.21
2022-07-26T08:49:13.841Z,18.63
2022-07-26T08:54:17.836Z,18.60
2022-07-26T08:59:22.291Z,18.43
2022-07-26T09:04:34.664Z,18.25
2022-07-26T09:10:00.730Z,20.24
2022-07-26T09:15:06.198Z,20.12
2022-07-26T09:20:24.156Z,18.40
2022-07-26T09:25:32.886Z,17.27
2022-07-26T09:30:36.380Z,17.76
2022-07-26T09:35:50.841Z,16.99
2022-07-26T09:40:55.796Z,17.21
2022-07-26T09:46:05.457Z,17.48
2022-07-26T09:51:09.370Z,17.75
2022-07-26T09:56:13.048Z,16.89
2022-07-26T10:01:16.589Z,18.75
2022-07-26T10:06:21.116Z,19.68
2022-07-26T10:11:26.333Z,19.12
2022-07-26T10:16:33.852Z,19.78
2022-07-26T10:21:38.219Z,18.81
2022-07-26T10:26:45.781Z,21.31
2022-07-26T10:32:10.582Z,23.91
2022-07-26T10:37:28.009Z,23.87
2022-07-26T10:42:44.923Z,26.98
2022-07-26T10:48:15.868Z,27.92
2022-07-26T10:53:26.783Z,30.45
2022-07-26T10:58:43.842Z,28.18
2022-07-26T11:03:47.711Z,27.65
2022-07-26T11:08:51.115Z,30.36
2022-07-26T11:14:04.823Z,29.35
2022-07-26T11:19:17.528Z,30.50
2022-07-26T11:24:22.329Z,29.79
2022-07-26T11:29:37.979Z,30.05
2022-07-26T11:34:45.675Z,30.80
2022-07-26T11:39:49.247Z,30.13
2022-07-26T11:44:54.239Z,29.83
2022-07-26T11:50:18.658Z,27.75
2022-07-26T11:55:29.999Z,27.14
2022-07-26T12:00:33.258Z,27.44
2022-07-26T12:05:36.984Z,27.69
2022-07-26T12:10:40.600Z,28.22
2022-07-26T12:15:45.033Z,26.76
2022-07-26T12:21:09.357Z,24.86
2022-07-26T12:26:23.913Z,26.65
2022-07-26T12:31:31.323Z,27.39
2022-07-26T12:36:35.385Z,26.26
2022-07-26T12:41:40.564Z,23.91
2022-07-26T12:46:47.627Z,25.03
2022-07-26T12:51:51.162Z,24.32
2022-07-26T12:56:54.183Z,25.92
2022-07-26T13:01:58.568Z,23.33
2022-07-26T13:07:01.850Z,24.30
2022-07-26T13:12:06.276Z,23.34
2022-07-26T13:17:11.599Z,23.04
2022-07-26T13:22:15.165Z,25.38
2022-07-26T13:27:18.789Z,24.20
2022-07-26T13:33:12.497Z,25.22
2022-07-26T13:38:19.424Z,26.06
2022-07-26T13:43:22.577Z,25.76
2022-07-26T13:48:26.120Z,25.72
2022-07-26T13:53:30.687Z,26.04
2022-07-26T13:58:34.663Z,26.35
2022-07-26T14:03:38.263Z,26.66
2022-07-26T14:08:41.479Z,27.20
2022-07-26T14:13:45.100Z,26.93
2022-07-26T14:18:49.702Z,25.30
2022-07-26T14:23:53.522Z,26.34
2022-07-26T14:28:57.780Z,27.16
2022-07-26T14:34:01.083Z,27.88
2022-07-26T14:39:05.283Z,26.06
2022-07-26T14:44:08.678Z,25.96
2022-07-26T14:49:12.106Z,25.86
2022-07-26T14:54:17.008Z,26.94
2022-07-26T14:59:20.770Z,25.75
2022-07-26T15:04:24.286Z,28.01
2022-07-26T15:09:27.756Z,25.29
2022-07-26T15:14:31.129Z,26.34
2022-07-26T15:19:35.280Z,26.56
2022-07-26T15:24:40.092Z,27.57
2022-07-26T15:29:44.859Z,28.12
2022-07-26T15:34:47.967Z,28.99
2022-07-26T15:39:51.800Z,29.01
2022-07-26T15:44:55.460Z,30.12
2022-07-26T15:49:59.218Z,31.96
2022-07-26T15:55:03.543Z,33.46
2022-07-26T16:00:11.103Z,35.64
2022-07-26T16:05:15.166Z,36.67
2022-07-26T16:10:19.383Z,36.24
2022-07-26T16:15:23.495Z,37.71
2022-07-26T16:20:27.515Z,39.39
2022-07-26T16:25:31.132Z,39.00
2022-07-26T16:30:38.441Z,41.46
2022-07-26T16:35:43.232Z,42.06
2022-07-26T16:40:48.405Z,42.32
2022-07-26T16:45:52.098Z,43.59
2022-07-26T16:50:55.653Z,44.30
2022-07-26T16:55:59.756Z,44.17
2022-07-26T17:01:03.453Z,44.70
2022-07-26T17:06:07.923Z,45.91
2022-07-26T17:11:11.312Z,45.23
2022-07-26T17:16:15.038Z,46.54
2022-07-26T17:21:25.107Z,47.77
2022-07-26T17:26:30.751Z,48.90
2022-07-26T17:31:34.874Z,49.38
2022-07-26T17:36:38.630Z,50.44
2022-07-26T17:41:42.617Z,51.52
2022-07-26T17:46:53.939Z,52.37
2022-07-26T17:51:59.635Z,52.79
2022-07-26T17:57:06.488Z,53.86
2022-07-26T18:02:09.771Z,57.70
2022-07-26T18:07:14.816Z,58.44
2022-07-26T18:12:18.367Z,55.01
2022-07-26T18:17:21.887Z,53.86
2022-07-26T18:22:25.987Z,52.39
2022-07-26T18:27:29.193Z,52.82
2022-07-26T18:32:32.714Z,52.50
2022-07-26T18:37:36.240Z,53.45
2022-07-26T18:42:40.251Z,53.55
2022-07-26T18:47:43.892Z,53.80
2022-07-26T18:52:47.811Z,54.58
2022-07-26T18:57:52.157Z,53.88
2022-07-26T19:02:57.785Z,54.65
2022-07-26T19:08:01.180Z,55.31
2022-07-26T19:13:04.671Z,54.99
2022-07-26T19:18:14.939Z,56.55
2022-07-26T19:23:19.022Z,57.46
2022-07-26T19:28:22.692Z,58.14
2022-07-26T19:33:26.168Z,58.12
2022-07-26T19:38:29.323Z,58.82
2022-07-26T19:43:33.300Z,58.23
2022-07-26T19:48:36.779Z,57.91
2022-07-26T19:53:40.895Z,57.59
2022-07-26T19:58:46.612Z,56.99
2022-07-26T20:03:51.060Z,56.23
2022-07-26T20:08:55.255Z,56.29
2022-07-26T20:14:01.364Z,55.71
2022-07-26T20:19:04.873Z,52.01
2022-07-26T20:24:08.855Z,49.75
2022-07-26T20:29:12.606Z,49.11
2022-07-26T20:34:16.406Z,48.13
2022-07-26T20:39:20.011Z,47.96
2022-07-26T20:44:27.875Z,47.58
2022-07-26T20:49:31.909Z,47.47
2022-07-26T20:54:35.391Z,47.45
2022-07-26T20:59:38.484Z,48.07
2022-07-26T21:04:42.315Z,47.54
2022-07-26T21:09:46.148Z,47.95
2022-07-26T21:14:51.175Z,47.96
2022-07-26T21:19:54.817Z,48.70
2022-07-26T21:24:58.885Z,49.19
2022-07-26T21:30:02.676Z,48.59
2022-07-26T21:35:06.704Z,48.57
2022-07-26T21:40:10.581Z,48.87
2022-07-26T21:45:14.349Z,49.05
2022-07-26T21:50:17.817Z,49.82
2022-07-26T21:55:22.229Z,50.65
2022-07-26T22:00:25.316Z,50.26
2022-07-26T22:05:35.588Z,50.13
2022-07-26T22:10:45.041Z,49.91
2022-07-26T22:15:49.743Z,50.25
2022-07-26T22:20:53.729Z,50.32
2022-07-26T22:25:59.559Z,50.52
2022-07-26T22:31:03.772Z,50.35
2022-07-26T22:36:06.853Z,49.26
2022-07-26T22:41:11.624Z,49.32
2022-07-26T22:46:15.549Z,49.54
2022-07-26T22:51:19.309Z,49.80
2022-07-26T22:56:22.510Z,49.99
2022-07-26T23:01:25.700Z,50.89
2022-07-26T23:06:31.590Z,51.03
2022-07-26T23:11:35.488Z,51.24
2022-07-26T23:16:40.163Z,51.16
2022-07-26T23:21:43.648Z,51.20
2022-07-26T23:26:46.595Z,51.67
2022-07-26T23:31:50.423Z,51.75
2022-07-26T23:36:54.161Z,52.37
2022-07-26T23:41:58.195Z,52.33
2022-07-26T23:47:02.914Z,52.57
2022-07-26T23:52:06.515Z,52.73
2022-07-26T23:57:10.271Z,53.16
